createdAt,value
2023-10-08T00:01:43.584Z,8.85
2023-10-08T00:04:13.567Z,8.25
2023-10-08T00:06:43.198Z,12.20
2023-10-08T00:09:15.675Z,7.90
2023-10-08T00:11:44.748Z,8.32
2023-10-08T00:14:22.333Z,8.25
2023-10-08T00:16:52.199Z,9.65
2023-10-08T00:19:22.687Z,9.35
2023-10-08T00:21:54.591Z,11.52
2023-10-08T00:24:28.339Z,10.70
2023-10-08T00:26:57.492Z,9.77
2023-10-08T00:29:26.668Z,9.77
2023-10-08T00:31:58.387Z,10.98
2023-10-08T00:34:28.652Z,9.90
2023-10-08T00:36:59.180Z,10.65
2023-10-08T00:39:35.367Z,9.20
2023-10-08T00:42:06.053Z,9.55
2023-10-08T00:44:48.786Z,9.80
2023-10-08T00:47:19.661Z,12.00
2023-10-08T00:54:21.050Z,6.70
2023-10-08T00:56:58.525Z,10.75
2023-10-08T00:59:27.849Z,7.25
2023-10-08T01:02:00.674Z,9.23
2023-10-08T01:04:35.291Z,9.05
2023-10-08T01:07:14.149Z,8.80
2023-10-08T01:09:44.199Z,9.70
2023-10-08T01:12:22.598Z,12.40
2023-10-08T01:14:55.368Z,9.32
2023-10-08T01:17:28.535Z,13.05
2023-10-08T01:20:10.316Z,9.32
2023-10-08T01:22:41.801Z,9.30
2023-10-08T01:25:12.048Z,8.25
2023-10-08T01:27:41.228Z,8.68
2023-10-08T01:30:19.174Z,10.52
2023-10-08T01:32:48.254Z,9.77
2023-10-08T01:35:24.665Z,8.35
2023-10-08T01:37:57.860Z,9.30
2023-10-08T01:40:26.970Z,12.02
2023-10-08T01:42:55.872Z,7.05
2023-10-08T01:45:26.165Z,7.50
2023-10-08T01:47:56.459Z,11.65
2023-10-08T01:50:26.880Z,9.57
2023-10-08T01:52:57.348Z,7.78
2023-10-08T01:55:26.804Z,8.13
2023-10-08T01:57:55.617Z,10.85
2023-10-08T02:00:27.668Z,8.63
2023-10-08T02:02:59.553Z,6.60
2023-10-08T02:05:31.989Z,9.98
2023-10-08T02:08:04.787Z,9.23
2023-10-08T02:30:55.876Z,11.52
2023-10-08T03:03:17.776Z,8.85
2023-10-08T03:05:50.806Z,11.38
2023-10-08T03:08:22.830Z,13.05
2023-10-08T03:10:57.041Z,12.32
2023-10-08T03:13:27.601Z,10.57
2023-10-08T03:16:09.392Z,9.52
2023-10-08T03:18:44.049Z,12.25
2023-10-08T03:21:25.332Z,12.18
2023-10-08T03:23:59.440Z,11.65
2023-10-08T03:26:35.141Z,10.25
2023-10-08T03:29:09.473Z,10.75
2023-10-08T03:31:52.081Z,11.65
2023-10-08T03:34:28.962Z,12.90
2023-10-08T03:37:07.036Z,13.70
2023-10-08T03:39:53.290Z,7.93
2023-10-08T03:42:23.697Z,9.45
2023-10-08T03:44:53.761Z,14.05
2023-10-08T03:47:27.905Z,8.95
2023-10-08T03:49:58.336Z,11.23
2023-10-08T03:52:27.634Z,11.93
2023-10-08T03:55:06.202Z,13.45
2023-10-08T03:57:45.168Z,9.85
2023-10-08T04:00:19.287Z,10.98
2023-10-08T04:02:56.613Z,10.10
2023-10-08T04:05:33.368Z,9.70
2023-10-08T04:08:26.048Z,8.15
2023-10-08T04:11:13.225Z,7.45
2023-10-08T04:13:49.864Z,8.13
2023-10-08T04:16:20.644Z,6.20
2023-10-08T04:18:51.905Z,5.88
2023-10-08T04:21:22.477Z,7.07
2023-10-08T04:23:54.433Z,4.97
2023-10-08T04:26:25.041Z,4.20
2023-10-08T04:28:58.830Z,4.68
2023-10-08T04:31:38.173Z,2.53
2023-10-08T04:34:11.974Z,3.58
2023-10-08T04:36:42.186Z,4.88
2023-10-08T04:39:17.182Z,3.10
2023-10-08T04:41:46.433Z,3.13
2023-10-08T04:44:16.945Z,3.58
2023-10-08T04:46:53.184Z,4.00
2023-10-08T04:49:30.085Z,3.40
2023-10-08T04:52:06.565Z,3.28
2023-10-08T04:54:41.210Z,2.92
2023-10-08T04:57:16.293Z,1.73
2023-10-08T04:59:47.781Z,3.17
2023-10-08T05:02:22.125Z,3.22
2023-10-08T05:05:19.258Z,3.45
2023-10-08T05:08:07.471Z,2.42
2023-10-08T05:11:02.261Z,2.08
2023-10-08T05:13:46.587Z,1.02
2023-10-08T05:16:36.966Z,3.78
2023-10-08T05:19:09.881Z,2.42
2023-10-08T05:21:52.639Z,2.33
2023-10-08T05:24:29.136Z,1.77
2023-10-08T05:27:23.030Z,2.63
2023-10-08T05:30:12.663Z,2.63
2023-10-08T05:33:06.869Z,3.25
2023-10-08T05:35:50.402Z,1.58
2023-10-08T05:38:39.250Z,2.08
2023-10-08T05:41:27.363Z,1.48
2023-10-08T05:44:14.126Z,2.83
2023-10-08T05:47:06.011Z,2.00
2023-10-08T05:49:55.702Z,2.38
2023-10-08T05:54:07.556Z,1.67
2023-10-08T05:56:53.704Z,2.03
2023-10-08T05:59:28.655Z,2.28
2023-10-08T06:02:09.706Z,2.72
2023-10-08T06:04:54.555Z,1.25
2023-10-08T06:07:34.839Z,1.60
2023-10-08T06:10:04.008Z,1.55
2023-10-08T06:12:46.274Z,1.70
2023-10-08T06:15:14.841Z,2.13
2023-10-08T06:18:05.444Z,2.33
2023-10-08T06:20:38.312Z,2.15
2023-10-08T06:27:41.145Z,1.33
2023-10-08T06:30:18.203Z,1.50
2023-10-08T06:32:49.409Z,2.40
2023-10-08T06:35:19.730Z,1.80
2023-10-08T06:37:50.590Z,0.80
2023-10-08T06:40:33.395Z,2.83
2023-10-08T06:43:13.316Z,2.47
2023-10-08T06:45:44.444Z,1.02
2023-10-08T06:48:19.357Z,2.35
2023-10-08T06:50:50.603Z,2.15
2023-10-08T06:53:20.425Z,1.02
2023-10-08T06:55:56.268Z,0.98
2023-10-08T06:58:27.502Z,0.75
2023-10-08T07:00:56.779Z,1.33
2023-10-08T07:03:26.350Z,0.80
2023-10-08T07:05:59.377Z,1.00
2023-10-08T07:08:33.015Z,0.88
2023-10-08T07:11:07.887Z,1.38
2023-10-08T07:13:38.638Z,1.27
2023-10-08T07:16:12.527Z,1.50
2023-10-08T07:18:46.123Z,2.05
2023-10-08T07:21:14.973Z,2.38
2023-10-08T07:23:58.098Z,1.48
2023-10-08T07:26:37.798Z,1.27
2023-10-08T07:29:10.201Z,2.10
2023-10-08T07:31:42.834Z,1.88
2023-10-08T07:34:19.490Z,2.40
2023-10-08T07:36:50.675Z,1.45
2023-10-08T07:39:27.317Z,2.65
2023-10-08T07:41:57.790Z,1.08
2023-10-08T07:44:32.293Z,3.58
2023-10-08T07:47:02.717Z,1.70
2023-10-08T07:49:33.215Z,1.38
2023-10-08T07:52:02.218Z,2.05
2023-10-08T07:54:35.488Z,1.15
2023-10-08T07:57:13.040Z,1.30
2023-10-08T07:59:47.657Z,1.85
2023-10-08T08:02:21.586Z,2.30
2023-10-08T08:04:54.664Z,1.70
2023-10-08T08:07:25.918Z,1.80
2023-10-08T08:10:00.666Z,1.63
2023-10-08T08:12:34.214Z,1.30
2023-10-08T08:15:16.315Z,2.00
2023-10-08T08:17:49.162Z,1.08
2023-10-08T08:20:24.173Z,1.73
2023-10-08T08:22:55.740Z,2.10
2023-10-08T08:25:35.557Z,2.30
2023-10-08T08:28:07.661Z,1.58
2023-10-08T08:30:41.054Z,0.75
2023-10-08T08:33:12.336Z,1.08
2023-10-08T08:35:42.303Z,1.45
2023-10-08T08:38:13.114Z,1.52
2023-10-08T08:40:42.557Z,1.75
2023-10-08T08:43:12.863Z,4.82
2023-10-08T08:45:44.638Z,4.65
2023-10-08T08:48:16.593Z,2.53
2023-10-08T08:50:49.002Z,0.85
2023-10-08T08:53:19.642Z,1.00
2023-10-08T08:55:50.219Z,1.63
2023-10-08T08:58:19.170Z,1.20
2023-10-08T09:00:53.372Z,0.98
2023-10-08T09:03:23.667Z,3.38
2023-10-08T09:10:29.399Z,1.27
2023-10-08T09:13:00.804Z,0.90
2023-10-08T09:15:30.864Z,0.75
2023-10-08T09:18:04.474Z,1.10
2023-10-08T09:20:44.619Z,1.17
2023-10-08T09:23:16.082Z,0.75
2023-10-08T09:25:46.924Z,0.55
2023-10-08T09:28:15.783Z,1.48
2023-10-08T09:30:46.758Z,0.90
2023-10-08T09:33:19.040Z,0.90
2023-10-08T09:40:27.494Z,2.30
2023-10-08T09:42:57.316Z,0.65
2023-10-08T09:50:09.057Z,0.98
2023-10-08T09:52:49.601Z,1.75
2023-10-08T09:55:21.359Z,2.13
2023-10-08T09:57:52.274Z,1.52
2023-10-08T10:04:53.819Z,0.50
2023-10-08T10:11:58.927Z,1.95
2023-10-08T10:14:28.361Z,2.10
2023-10-08T10:21:35.679Z,0.82
2023-10-08T10:24:07.384Z,1.05
2023-10-08T10:31:21.576Z,1.85
2023-10-08T10:33:50.526Z,1.17
2023-10-08T10:36:23.616Z,1.25
2023-10-08T10:38:55.075Z,0.65
2023-10-08T10:55:33.839Z,0.90
2023-10-08T10:58:17.123Z,1.52
2023-10-08T11:05:20.975Z,0.52
2023-10-08T11:07:50.657Z,1.75
2023-10-08T11:10:25.361Z,1.50
2023-10-08T11:12:55.705Z,1.27
2023-10-08T11:15:25.066Z,1.52
2023-10-08T11:17:57.061Z,1.25
2023-10-08T11:20:27.037Z,1.05
2023-10-08T11:22:56.574Z,0.63
2023-10-08T11:30:01.656Z,0.85
2023-10-08T11:46:19.269Z,1.98
2023-10-08T11:48:48.600Z,1.15
2023-10-08T11:51:18.549Z,0.77
2023-10-08T11:53:47.768Z,0.60
2023-10-08T11:56:16.896Z,1.17
2023-10-08T11:58:46.254Z,0.80
2023-10-08T12:01:19.055Z,0.85
2023-10-08T12:03:51.157Z,0.65
2023-10-08T12:06:20.978Z,0.50
2023-10-08T12:08:54.777Z,1.38
2023-10-08T12:11:32.324Z,1.45
2023-10-08T12:18:41.295Z,0.55
2023-10-08T12:25:53.696Z,1.42
2023-10-08T12:28:24.782Z,2.03
2023-10-08T12:30:54.872Z,0.55
2023-10-08T12:33:25.549Z,0.80
2023-10-08T12:35:57.142Z,0.90
2023-10-08T12:38:29.228Z,2.08
2023-10-08T12:45:32.284Z,0.80
2023-10-08T12:48:01.192Z,3.55
2023-10-08T12:50:36.044Z,1.70
2023-10-08T12:53:06.708Z,3.85
2023-10-08T12:55:40.885Z,1.15
2023-10-08T12:58:11.751Z,1.10
2023-10-08T13:05:17.300Z,1.23
2023-10-08T13:07:47.128Z,1.33
2023-10-08T13:10:17.626Z,2.08
2023-10-08T13:12:46.505Z,3.08
2023-10-08T13:15:15.803Z,1.65
2023-10-08T13:17:46.813Z,1.10
2023-10-08T13:24:49.913Z,1.95
2023-10-08T13:27:20.209Z,1.10
2023-10-08T13:29:49.415Z,4.20
2023-10-08T13:32:19.451Z,1.02
2023-10-08T13:34:48.643Z,3.42
2023-10-08T13:37:17.735Z,1.20
2023-10-08T13:39:47.398Z,1.05
2023-10-08T13:46:51.293Z,1.60
2023-10-08T13:49:20.544Z,1.23
2023-10-08T13:51:57.587Z,3.25
2023-10-08T13:54:30.932Z,1.20
2023-10-08T13:57:03.240Z,1.58
2023-10-08T13:59:33.840Z,1.70
2023-10-08T14:02:15.738Z,1.38
2023-10-08T14:10:09.820Z,2.72
2023-10-08T14:17:16.051Z,1.67
2023-10-08T14:19:52.869Z,2.10
2023-10-08T14:22:24.247Z,1.33
2023-10-08T14:25:00.751Z,3.45
2023-10-08T14:27:33.409Z,3.00
2023-10-08T14:30:06.053Z,4.15
2023-10-08T14:32:38.477Z,1.70
2023-10-08T14:39:57.709Z,2.60
2023-10-08T14:42:44.125Z,1.38
2023-10-08T14:45:14.846Z,0.70
2023-10-08T14:47:46.259Z,1.58
2023-10-08T14:50:18.337Z,3.17
2023-10-08T14:52:48.514Z,2.17
2023-10-08T14:55:17.950Z,1.13
2023-10-08T14:57:46.818Z,1.55
2023-10-08T15:00:16.475Z,1.15
2023-10-08T15:02:46.808Z,1.80
2023-10-08T15:05:16.158Z,1.48
2023-10-08T15:07:44.977Z,1.45
2023-10-08T15:10:14.325Z,1.55
2023-10-08T15:12:43.599Z,2.25
2023-10-08T15:15:15.110Z,0.80
2023-10-08T15:17:47.586Z,2.53
2023-10-08T15:20:21.476Z,2.00
2023-10-08T15:22:51.316Z,3.15
2023-10-08T15:25:21.096Z,1.00
2023-10-08T15:27:50.411Z,2.20
2023-10-08T15:30:22.076Z,1.77
2023-10-08T15:32:54.027Z,2.10
2023-10-08T15:35:25.805Z,1.65
2023-10-08T15:37:55.882Z,3.03
2023-10-08T15:40:25.147Z,1.17
2023-10-08T15:42:57.981Z,1.60
2023-10-08T15:45:28.829Z,1.55
2023-10-08T15:47:59.363Z,2.33
2023-10-08T15:50:34.208Z,1.73
2023-10-08T15:53:03.299Z,1.75
2023-10-08T15:55:33.134Z,2.45
2023-10-08T15:58:02.017Z,2.97
2023-10-08T16:05:04.116Z,2.08
2023-10-08T16:07:33.947Z,1.85
2023-10-08T16:10:03.303Z,2.30
2023-10-08T16:12:32.574Z,2.10
2023-10-08T16:15:01.885Z,1.83
2023-10-08T16:17:32.458Z,4.20
2023-10-08T16:20:10.777Z,2.42
2023-10-08T16:22:39.673Z,2.60
2023-10-08T16:25:09.956Z,2.00
2023-10-08T16:27:39.365Z,3.50
2023-10-08T16:30:12.791Z,4.28
2023-10-08T16:32:42.541Z,2.45
2023-10-08T16:35:13.777Z,2.83
2023-10-08T16:37:43.931Z,3.85
2023-10-08T16:40:14.750Z,2.55
2023-10-08T16:42:43.602Z,3.08
2023-10-08T16:45:17.861Z,3.35
2023-10-08T16:47:47.068Z,3.30
2023-10-08T16:50:18.558Z,2.10
2023-10-08T16:52:49.779Z,2.33
2023-10-08T16:55:19.295Z,3.17
2023-10-08T16:57:48.158Z,4.38
2023-10-08T17:00:17.763Z,4.03
2023-10-08T17:02:46.761Z,4.57
2023-10-08T17:05:18.852Z,3.95
2023-10-08T17:07:47.757Z,3.20
2023-10-08T17:10:17.736Z,2.60
2023-10-08T17:12:46.623Z,6.50
2023-10-08T17:15:16.227Z,5.22
2023-10-08T17:17:45.239Z,4.28
2023-10-08T17:20:18.235Z,4.20
2023-10-08T17:22:48.916Z,3.85
2023-10-08T17:25:18.283Z,3.55
2023-10-08T17:27:48.384Z,3.90
2023-10-08T17:30:21.442Z,4.65
2023-10-08T17:32:53.454Z,4.35
2023-10-08T17:44:33.067Z,3.92
2023-10-08T17:51:36.075Z,5.38
2023-10-08T17:54:05.964Z,5.43
2023-10-08T17:56:35.876Z,5.47
2023-10-08T17:59:04.888Z,5.05
2023-10-08T18:01:35.689Z,5.28
2023-10-08T18:04:05.035Z,5.35
2023-10-08T18:11:06.570Z,4.45
2023-10-08T18:13:41.767Z,4.47
2023-10-08T18:16:12.188Z,4.22
2023-10-08T18:18:44.157Z,5.20
2023-10-08T18:21:18.081Z,5.68
2023-10-08T18:28:20.345Z,3.85
2023-10-08T18:30:51.260Z,4.03
2023-10-08T18:33:20.772Z,3.35
2023-10-08T18:40:23.851Z,6.93
2023-10-08T18:42:54.385Z,6.60
2023-10-08T18:45:23.747Z,6.43
2023-10-08T18:47:53.793Z,3.92
2023-10-08T18:50:23.610Z,4.50
2023-10-08T18:52:52.757Z,5.63
2023-10-08T18:55:23.735Z,4.97
2023-10-08T18:57:54.072Z,4.65
2023-10-08T19:00:23.354Z,4.90
2023-10-08T19:07:25.155Z,8.70
2023-10-08T19:09:54.089Z,7.00
2023-10-08T19:12:25.060Z,5.55
2023-10-08T19:14:54.181Z,5.72
2023-10-08T19:17:23.702Z,6.32
2023-10-08T19:24:25.482Z,5.15
2023-10-08T19:26:56.671Z,7.10
2023-10-08T19:29:28.239Z,4.32
2023-10-08T19:31:57.053Z,6.60
2023-10-08T19:34:26.599Z,6.35
2023-10-08T19:36:55.464Z,7.32
2023-10-08T19:39:24.597Z,6.40
2023-10-08T19:41:53.878Z,8.52
2023-10-08T19:44:23.054Z,6.90
2023-10-08T19:46:53.355Z,6.13
2023-10-08T19:49:22.945Z,6.95
2023-10-08T19:56:24.727Z,4.65
2023-10-08T20:03:28.434Z,7.38
2023-10-08T20:05:58.501Z,7.32
2023-10-08T20:08:27.726Z,7.88
2023-10-08T20:10:57.240Z,7.43
2023-10-08T20:17:58.787Z,8.68
2023-10-08T20:20:31.146Z,7.38
2023-10-08T20:23:00.856Z,8.25
2023-10-08T20:25:35.000Z,6.90
2023-10-08T20:28:04.650Z,8.80
2023-10-08T20:30:37.272Z,8.32
2023-10-08T20:33:08.583Z,10.45
2023-10-08T20:35:38.989Z,8.95
2023-10-08T20:38:10.043Z,11.10
2023-10-08T20:45:56.949Z,9.27
2023-10-08T20:48:26.622Z,10.23
2023-10-08T20:50:59.143Z,12.15
2023-10-08T20:53:28.779Z,9.20
2023-10-08T20:55:58.035Z,9.20
2023-10-08T21:03:03.527Z,8.68
2023-10-08T21:05:34.201Z,10.10
2023-10-08T21:08:05.632Z,9.77
2023-10-08T21:10:52.821Z,9.65
2023-10-08T21:15:07.707Z,8.55
2023-10-08T21:17:37.827Z,11.52
2023-10-08T21:20:10.892Z,11.10
2023-10-08T21:22:41.379Z,9.48
2023-10-08T21:25:13.663Z,12.07
2023-10-08T21:27:45.531Z,10.45
2023-10-08T21:30:17.274Z,10.23
2023-10-08T21:32:48.841Z,7.90
2023-10-08T21:35:21.991Z,7.78
2023-10-08T21:37:53.228Z,5.80
2023-10-08T21:40:23.991Z,7.53
2023-10-08T21:42:55.527Z,8.95
2023-10-08T21:45:24.626Z,9.27
2023-10-08T21:52:25.461Z,6.45
2023-10-08T21:54:54.607Z,6.22
2023-10-08T21:57:25.319Z,8.60
2023-10-08T21:59:54.763Z,8.95
2023-10-08T22:02:24.024Z,5.90
2023-10-08T22:09:29.475Z,9.65
2023-10-08T22:11:59.670Z,9.93
2023-10-08T22:14:34.208Z,8.20
2023-10-08T22:17:04.639Z,7.38
2023-10-08T22:19:43.999Z,8.45
2023-10-08T22:22:12.959Z,6.82
2023-10-08T22:24:42.391Z,8.52
2023-10-08T22:27:23.400Z,8.60
2023-10-08T22:29:55.835Z,7.50
2023-10-08T22:32:25.605Z,9.02
2023-10-08T22:35:08.726Z,7.75
2023-10-08T22:37:53.822Z,9.82
2023-10-08T22:40:23.505Z,10.02
2023-10-08T22:42:54.945Z,8.90
2023-10-08T22:45:29.006Z,10.18
2023-10-08T22:48:00.512Z,8.35
2023-10-08T22:50:35.590Z,6.97
2023-10-08T22:53:06.546Z,7.20
2023-10-08T22:55:39.678Z,6.63
2023-10-08T22:58:09.361Z,6.72
2023-10-08T23:00:41.510Z,7.32
2023-10-08T23:03:12.649Z,7.18
2023-10-08T23:05:42.223Z,8.05
2023-10-08T23:08:12.876Z,8.73
2023-10-08T23:10:43.775Z,7.85
2023-10-08T23:13:12.656Z,7.25
2023-10-08T23:15:44.607Z,8.15
2023-10-08T23:18:14.552Z,6.88
2023-10-08T23:20:45.546Z,9.43
2023-10-08T23:23:14.490Z,7.10
2023-10-08T23:25:43.605Z,6.30
2023-10-08T23:28:13.589Z,6.97
2023-10-08T23:30:44.806Z,9.95
2023-10-08T23:33:14.243Z,6.72
2023-10-08T23:35:45.430Z,6.53
2023-10-08T23:38:26.931Z,5.65
2023-10-08T23:40:58.984Z,7.95
2023-10-08T23:43:34.596Z,8.93
2023-10-08T23:46:07.457Z,8.82
2023-10-08T23:48:53.523Z,6.13
2023-10-08T23:51:24.802Z,5.45
2023-10-08T23:53:56.660Z,6.45
2023-10-08T23:56:28.781Z,7.25
2023-10-08T23:59:00.647Z,6.22
